Time;durP1;ratioP1;P1;durP2;ratioP2;P2;SDS_P1;SDS_P2;PMS_P1;PMS_P2;Temp;Humidity;BMP_temperature;BMP_pressure;BME280_temperature;BME280_humidity;BME280_pressure;Samples;Min_cycle;Max_cycle;Signal;HPM_P1;HPM_P2
2022/11/25 07:59:37;;;;;;;7.42;6.03;;;;;;;2.50;85.28;99330.10;1867632;76;22636;-38
2022/11/25 08:02:04;;;;;;;9.53;5.50;;;;;;;2.62;84.37;99337.00;1818008;79;20899;-38
2022/11/25 08:04:31;;;;;;;7.03;6.25;;;;;;;2.60;84.42;99343.23;1817740;79;21221;-38
2022/11/25 08:06:58;;;;;;;7.55;5.85;;;;;;;2.62;84.52;99344.48;1817674;79;20887;-38
2022/11/25 08:09:25;;;;;;;8.45;5.50;;;;;;;2.66;84.16;99344.68;1817672;79;20962;-38
2022/11/25 08:11:53;;;;;;;7.53;5.62;;;;;;;2.73;83.87;99344.22;1817712;79;20955;-38
2022/11/25 08:14:20;;;;;;;8.48;5.70;;;;;;;2.83;83.26;99344.75;1817569;79;21504;-38
2022/11/25 08:16:47;;;;;;;7.58;5.60;;;;;;;2.89;82.87;99352.10;1817604;79;23083;-38
2022/11/25 08:19:16;;;;;;;8.25;5.75;;;;;;;2.92;82.64;99349.59;1817549;79;20923;-39
2022/11/25 08:21:43;;;;;;;6.47;4.80;;;;;;;2.96;82.39;99350.55;1817646;79;20966;-38
2022/11/25 08:24:17;;;;;;;7.78;5.55;;;;;;;3.04;82.08;99355.16;1817654;79;21011;-38
2022/11/25 08:26:44;;;;;;;7.12;5.17;;;;;;;3.16;81.58;99353.77;1817804;79;20999;-38
2022/11/25 08:29:14;;;;;;;7.22;5.70;;;;;;;3.26;80.97;99358.84;1817819;79;21216;-38
2022/11/25 08:31:41;;;;;;;7.62;5.22;;;;;;;3.26;80.37;99364.20;1817539;79;21001;-38
2022/11/25 08:34:10;;;;;;;7.22;5.22;;;;;;;3.26;80.01;99366.88;1817585;79;20971;-38
2022/11/25 08:36:37;;;;;;;6.62;5.10;;;;;;;3.24;79.69;99365.88;1817881;79;21002;-38
2022/11/25 08:39:06;;;;;;;6.53;4.85;;;;;;;3.26;79.32;99358.30;1817693;79;21030;-38
2022/11/25 08:41:35;;;;;;;7.70;5.70;;;;;;;3.31;78.67;99362.17;1817720;79;21966;-38
2022/11/25 08:44:04;;;;;;;7.72;6.03;;;;;;;3.30;78.30;99364.61;1817737;79;20946;-38
2022/11/25 08:46:35;;;;;;;7.97;4.75;;;;;;;3.26;78.40;99374.37;1818016;79;21594;-38
2022/11/25 08:49:03;;;;;;;7.08;5.37;;;;;;;3.22;78.34;99365.92;1817609;79;21013;-38
2022/11/25 08:51:31;;;;;;;7.53;5.45;;;;;;;3.18;78.22;99367.11;1817956;79;20911;-39
2022/11/25 08:53:58;;;;;;;7.67;5.75;;;;;;;3.17;78.03;99364.73;1817986;79;21193;-38
2022/11/25 08:56:25;;;;;;;7.92;5.90;;;;;;;3.19;77.83;99363.33;1817619;79;21515;-38
2022/11/25 08:58:53;;;;;;;9.23;6.30;;;;;;;3.26;77.92;99361.52;1824916;78;20985;-38
2022/11/25 09:01:21;;;;;;;10.45;6.97;;;;;;;3.30;77.87;99369.17;1830070;78;20891;-38
2022/11/25 09:03:49;;;;;;;9.48;6.90;;;;;;;3.29;77.88;99364.94;1830381;78;21006;-38
2022/11/25 09:06:17;;;;;;;8.83;6.70;;;;;;;3.30;77.63;99362.47;1830028;78;21272;-38
2022/11/25 09:08:43;;;;;;;11.18;6.72;;;;;;;3.28;77.31;99367.38;1830110;78;20989;-38
2022/11/25 09:11:11;;;;;;;8.85;6.92;;;;;;;3.28;77.05;99364.69;1829570;78;21299;-38
2022/11/25 09:13:39;;;;;;;8.48;6.80;;;;;;;3.28;77.08;99370.84;1829322;78;20962;-38
2022/11/25 09:16:08;;;;;;;11.93;7.90;;;;;;;3.26;77.23;99368.22;1829587;78;21009;-39
2022/11/25 09:18:36;;;;;;;13.22;7.42;;;;;;;3.26;77.30;99361.52;1829521;78;21114;-38
2022/11/25 09:21:11;;;;;;;11.95;6.85;;;;;;;3.25;77.21;99358.59;1829332;78;20990;-38
2022/11/25 09:23:38;;;;;;;7.95;6.15;;;;;;;3.24;77.05;99353.02;1829332;78;21526;-38
2022/11/25 09:26:06;;;;;;;8.38;6.75;;;;;;;3.27;76.93;99361.22;1829478;78;20950;-39
2022/11/25 09:28:33;;;;;;;7.72;6.37;;;;;;;3.29;76.83;99359.58;1829362;78;21518;-38
2022/11/25 09:31:08;;;;;;;11.25;7.40;;;;;;;3.28;77.05;99360.13;1829716;78;21569;-38
2022/11/25 09:33:36;;;;;;;9.33;6.92;;;;;;;3.29;77.11;99359.58;1829324;78;20962;-38
2022/11/25 09:36:04;;;;;;;10.05;6.05;;;;;;;3.30;77.18;99364.61;1829502;78;21013;-38
2022/11/25 09:38:31;;;;;;;8.80;6.20;;;;;;;3.33;76.96;99359.19;1829454;78;21009;-38
2022/11/25 09:41:06;;;;;;;8.38;6.33;;;;;;;3.37;76.53;99353.45;1829504;78;20942;-38
2022/11/25 09:46:54;;;;;;;10.30;6.40;;;;;;;3.33;76.59;99361.33;1829418;78;20946;-38
2022/11/25 09:49:32;;;;;;;9.35;6.62;;;;;;;3.27;76.63;99367.92;1829297;78;21005;-38
2022/11/25 09:52:35;;;;;;;8.10;6.08;;;;;;;3.25;76.85;99365.30;1829521;78;21024;-38
2022/11/25 09:55:17;;;;;;;10.05;6.60;;;;;;;3.24;76.77;99365.08;1829534;78;21053;-38
2022/11/25 09:58:24;;;;;;;12.15;8.03;;;;;;;3.33;76.88;99365.89;1826378;78;21128;-38
2022/11/25 10:00:51;;;;;;;12.53;7.78;;;;;;;3.37;76.80;99372.20;1829274;78;21599;-38
2022/11/25 10:03:56;;;;;;;17.00;10.32;;;;;;;3.39;76.87;99368.09;1829419;78;20993;-38
2022/11/25 10:06:30;;;;;;;17.95;10.48;;;;;;;3.41;76.69;99367.80;1829489;78;21530;-38
2022/11/25 10:09:00;;;;;;;12.33;8.80;;;;;;;3.36;76.36;99365.26;1829477;78;21554;-39
2022/11/25 10:11:56;;;;;;;11.05;8.05;;;;;;;3.34;76.37;99371.50;1829402;78;21558;-38
2022/11/25 10:14:59;;;;;;;12.55;7.87;;;;;;;3.43;76.45;99368.28;1823225;78;20998;-39
2022/11/25 10:17:42;;;;;;;12.63;9.25;;;;;;;3.46;76.27;99362.29;1829268;78;20966;-38
2022/11/25 10:20:30;;;;;;;13.83;8.65;;;;;;;3.45;76.24;99364.73;1829496;78;21000;-39
2022/11/25 10:23:10;;;;;;;11.18;7.30;;;;;;;3.42;76.25;99369.37;1829759;78;20969;-39
2022/11/25 10:25:47;;;;;;;9.98;7.00;;;;;;;3.39;76.13;99361.95;1829431;78;21231;-39
2022/11/25 10:28:20;;;;;;;10.40;7.15;;;;;;;3.35;75.97;99367.69;1829770;78;21001;-39
2022/11/25 10:31:00;;;;;;;10.32;7.37;;;;;;;3.36;75.92;99369.28;1829628;78;21057;-39
2022/11/25 10:33:44;;;;;;;10.48;7.20;;;;;;;3.35;75.87;99365.80;1829351;78;21015;-39
2022/11/25 10:36:21;;;;;;;15.28;8.25;;;;;;;3.29;76.09;99374.31;1829607;78;21045;-39
2022/11/25 10:39:23;;;;;;;10.98;7.75;;;;;;;3.29;76.44;99382.35;1829797;78;21174;-40
2022/11/25 10:42:02;;;;;;;10.15;7.33;;;;;;;3.32;76.22;99381.72;1829426;78;22188;-39
2022/11/25 10:44:34;;;;;;;12.10;7.55;;;;;;;3.34;75.98;99387.58;1829330;78;21518;-39
2022/11/25 10:47:22;;;;;;;8.78;6.60;;;;;;;3.33;76.13;99391.34;1829307;78;21017;-39
2022/11/25 10:50:14;;;;;;;11.78;8.08;;;;;;;3.32;76.16;99389.76;1829184;78;20987;-39
2022/11/25 10:53:12;;;;;;;10.75;7.10;;;;;;;3.28;76.23;99387.47;1803466;78;20989;-39
2022/11/25 10:55:39;;;;;;;8.65;6.00;;;;;;;3.23;76.32;99388.94;1829451;78;20922;-39
2022/11/25 10:58:27;;;;;;;7.25;5.53;;;;;;;3.15;76.03;99385.70;1803873;78;21079;-40
2022/11/25 11:01:18;;;;;;;7.47;5.62;;;;;;;3.15;76.01;99385.70;1829496;78;20930;-39
2022/11/25 11:03:54;;;;;;;7.72;5.72;;;;;;;3.12;76.22;99388.97;1829393;78;21490;-39
2022/11/25 11:06:39;;;;;;;9.68;5.97;;;;;;;3.05;76.35;99394.77;1803441;78;20943;-40
2022/11/25 11:09:08;;;;;;;7.28;5.60;;;;;;;3.04;76.62;99394.55;1829363;78;21016;-40
2022/11/25 11:11:41;;;;;;;7.37;5.62;;;;;;;3.08;76.70;99392.83;1804305;78;21001;-40
2022/11/25 11:14:12;;;;;;;9.13;6.70;;;;;;;3.15;76.44;99397.75;1828665;78;21519;-40
2022/11/25 11:16:44;;;;;;;8.83;6.58;;;;;;;3.18;76.50;99403.81;1829268;78;21084;-40
2022/11/25 11:19:26;;;;;;;9.03;6.90;;;;;;;3.20;76.50;99412.31;1829269;78;21230;-40
2022/11/25 11:21:54;;;;;;;10.15;7.45;;;;;;;3.15;76.48;99407.13;1829432;78;21534;-40
2022/11/25 11:24:30;;;;;;;8.38;6.62;;;;;;;3.15;76.62;99413.24;1829631;78;21515;-40
2022/11/25 11:27:17;;;;;;;7.85;5.78;;;;;;;3.21;76.72;99415.23;1829420;78;21072;-40
2022/11/25 11:29:44;;;;;;;7.53;5.72;;;;;;;3.32;76.55;99411.20;1778320;78;21507;-40
2022/11/25 11:32:23;;;;;;;10.98;6.62;;;;;;;3.37;76.18;99409.17;1829502;78;21522;-40
2022/11/25 11:35:21;;;;;;;9.63;6.57;;;;;;;3.33;76.24;99408.22;1829519;78;20954;-40
2022/11/25 11:37:53;;;;;;;7.97;5.40;;;;;;;3.33;76.24;99408.22;1829216;78;21529;-40
2022/11/25 11:40:39;;;;;;;7.65;5.65;;;;;;;3.31;75.88;99413.63;1829624;78;21480;-40
2022/11/25 11:43:15;;;;;;;7.42;5.40;;;;;;;3.28;75.81;99407.02;1829371;78;20958;-40
2022/11/25 11:46:13;;;;;;;7.67;5.53;;;;;;;3.35;75.81;99415.92;1829349;78;21149;-40
2022/11/25 11:49:06;;;;;;;8.25;5.75;;;;;;;3.37;75.64;99413.73;1829342;78;21310;-40
2022/11/25 11:51:47;;;;;;;8.98;6.12;;;;;;;3.29;75.63;99407.81;1829468;78;21836;-40
2022/11/25 11:54:25;;;;;;;6.95;5.53;;;;;;;3.21;75.62;99410.67;1829518;78;21006;-40
2022/11/25 11:57:01;;;;;;;18.90;9.73;;;;;;;3.13;75.79;99411.98;1829398;78;21026;-40
2022/11/25 11:59:51;;;;;;;17.85;11.30;;;;;;;3.11;75.98;99413.63;1829351;78;21126;-40
2022/11/25 12:02:49;;;;;;;12.93;9.05;;;;;;;3.18;75.95;99407.28;1829592;78;20993;-40
2022/11/25 12:05:20;;;;;;;8.45;5.85;;;;;;;3.24;76.12;99414.64;1829561;78;21480;-40
2022/11/25 12:07:55;;;;;;;7.92;5.72;;;;;;;3.26;76.15;99413.77;1823201;78;21009;-40
2022/11/25 12:10:44;;;;;;;6.33;5.22;;;;;;;3.26;76.05;99417.78;1829248;78;21026;-40
2022/11/25 12:13:32;;;;;;;8.28;5.83;;;;;;;3.24;76.02;99419.45;1829575;78;21122;-40
2022/11/25 12:16:18;;;;;;;6.87;5.17;;;;;;;3.21;75.70;99423.28;1829085;78;20965;-40
2022/11/25 12:19:19;;;;;;;6.90;5.40;;;;;;;3.26;75.72;99428.50;1829400;78;20942;-40
2022/11/25 12:22:03;;;;;;;6.60;5.10;;;;;;;3.25;75.71;99427.70;1828762;78;20926;-40
2022/11/25 12:24:55;;;;;;;6.35;4.92;;;;;;;3.22;75.66;99428.87;1829198;78;21507;-40
2022/11/25 12:27:34;;;;;;;7.40;5.25;;;;;;;3.17;75.76;99425.80;1829188;78;21306;-40
2022/11/25 12:30:11;;;;;;;6.55;5.08;;;;;;;3.15;75.97;99435.25;1829472;78;20958;-40
2022/11/25 12:33:04;;;;;;;5.58;4.65;;;;;;;3.18;75.85;99430.06;1829293;78;20946;-40
2022/11/25 12:35:59;;;;;;;6.50;5.17;;;;;;;3.25;75.66;99439.77;1829159;78;21559;-40
2022/11/25 12:38:55;;;;;;;7.53;5.35;;;;;;;3.25;75.65;99433.61;1829585;78;21441;-40
2022/11/25 12:41:47;;;;;;;7.00;5.15;;;;;;;3.23;75.65;99426.45;1829195;78;21138;-40
2022/11/25 12:44:22;;;;;;;7.55;5.28;;;;;;;3.18;75.62;99431.39;1829281;78;20973;-40
2022/11/25 12:46:51;;;;;;;6.62;4.70;;;;;;;3.13;75.67;99428.06;1829631;78;21582;-40
2022/11/25 12:49:28;;;;;;;6.90;5.30;;;;;;;3.13;75.60;99440.91;1830003;78;21017;-40
2022/11/25 12:52:27;;;;;;;8.73;5.70;;;;;;;3.13;75.64;99445.47;1828118;78;21017;-40
2022/11/25 12:55:19;;;;;;;5.53;4.40;;;;;;;3.14;75.86;99444.37;1829563;78;21231;-40
2022/11/25 12:58:22;;;;;;;7.42;5.65;;;;;;;3.13;75.92;99445.47;1829530;78;20921;-40
2022/11/25 13:01:22;;;;;;;10.30;5.83;;;;;;;3.09;75.90;99441.83;1818275;78;20990;-40
2022/11/25 13:04:27;;;;;;;6.75;5.28;;;;;;;3.11;75.73;99443.63;1813947;79;20943;-40
2022/11/25 13:07:25;;;;;;;6.83;5.22;;;;;;;3.10;75.69;99443.41;1817114;79;21477;-40
2022/11/25 13:10:13;;;;;;;6.28;4.95;;;;;;;3.07;75.92;99440.78;1817090;79;21238;-40
2022/11/25 13:12:54;;;;;;;7.08;5.15;;;;;;;3.08;76.11;99447.73;1816905;79;21758;-40
2022/11/25 13:15:30;;;;;;;8.53;5.25;;;;;;;3.08;76.11;99448.28;1816734;79;21001;-40
2022/11/25 13:18:05;;;;;;;7.47;5.55;;;;;;;3.08;75.96;99446.39;1817050;79;21002;-40
2022/11/25 13:20:35;;;;;;;7.67;5.10;;;;;;;3.08;75.75;99446.94;1816905;79;20995;-40
2022/11/25 13:23:12;;;;;;;;;;;;;;;3.07;75.64;99454.18;1819722;79;21198;-40
2022/11/25 13:25:41;;;;;;;6.65;5.30;;;;;;;3.05;75.80;99457.16;1817017;79;20129;-40
2022/11/25 13:28:36;;;;;;;7.45;6.12;;;;;;;2.95;76.24;99452.05;1817061;79;20982;-40
2022/11/25 13:31:19;;;;;;;8.38;5.67;;;;;;;2.99;76.31;99457.06;1816308;79;21005;-40
2022/11/25 13:34:03;;;;;;;6.20;5.25;;;;;;;2.97;76.17;99455.23;1817252;79;21523;-39
2022/11/25 13:36:49;;;;;;;7.87;5.80;;;;;;;3.01;76.11;99455.40;1816812;79;21231;-40
2022/11/25 13:39:20;;;;;;;8.48;6.05;;;;;;;3.03;76.00;99455.89;1816969;79;21016;-40
2022/11/25 13:42:06;;;;;;;7.87;6.17;;;;;;;3.01;75.94;99459.41;1814085;79;21010;-40
2022/11/25 13:44:34;;;;;;;7.08;5.83;;;;;;;2.95;76.06;99459.33;1810846;79;20974;-40
2022/11/25 13:47:37;;;;;;;7.72;5.62;;;;;;;2.94;76.26;99465.77;1817292;78;21026;-40
2022/11/25 13:50:21;;;;;;;7.20;5.65;;;;;;;2.96;76.17;99466.23;1817032;79;21603;-40
2022/11/25 13:53:21;;;;;;;8.70;6.12;;;;;;;3.02;76.10;99464.48;1817398;79;20950;-40
2022/11/25 13:55:49;;;;;;;7.37;6.15;;;;;;;3.05;76.22;99460.37;1817122;79;21562;-40
2022/11/25 13:58:20;;;;;;;7.95;5.97;;;;;;;3.04;76.20;99464.97;1817205;79;20962;-40
2022/11/25 14:01:01;;;;;;;6.90;5.60;;;;;;;3.05;76.17;99468.41;1817045;78;21042;-40
2022/11/25 14:03:34;;;;;;;9.15;6.20;;;;;;;3.05;76.13;99464.39;1811076;79;22078;-40
2022/11/25 14:06:33;;;;;;;8.25;6.10;;;;;;;3.09;76.07;99464.59;1827566;78;20939;-40
2022/11/25 14:09:04;;;;;;;7.00;5.80;;;;;;;3.17;75.86;99461.95;1828874;78;20892;-40
2022/11/25 14:12:09;;;;;;;8.18;6.20;;;;;;;3.18;75.70;99464.88;1828757;78;20988;-40
2022/11/25 14:15:16;;;;;;;9.95;7.00;;;;;;;3.17;75.70;99465.18;1828839;78;21074;-40
2022/11/25 14:18:04;;;;;;;7.45;5.97;;;;;;;3.14;75.82;99473.84;1827942;78;21568;-40
2022/11/25 14:20:48;;;;;;;9.35;6.08;;;;;;;3.11;75.69;99467.73;1801411;78;20908;-40
2022/11/25 14:23:38;;;;;;;7.15;5.60;;;;;;;3.08;75.51;99473.17;1828994;78;20980;-40
2022/11/25 14:26:21;;;;;;;8.00;6.03;;;;;;;3.13;75.54;99469.58;1828754;78;21607;-40
2022/11/25 14:29:01;;;;;;;7.60;5.90;;;;;;;3.17;75.57;99474.55;1826657;78;20983;-40
2022/11/25 14:31:44;;;;;;;7.75;5.70;;;;;;;3.14;75.49;99469.28;1828902;78;21477;-40
2022/11/25 14:34:48;;;;;;;8.85;6.75;;;;;;;3.14;75.60;99477.86;1828839;78;21567;-40
2022/11/25 14:37:21;;;;;;;7.80;6.00;;;;;;;3.15;75.60;99480.78;1765681;78;21485;-40
2022/11/25 14:39:57;;;;;;;8.75;6.00;;;;;;;3.17;75.37;99486.06;1828665;78;21656;-40
2022/11/25 14:42:29;;;;;;;6.37;5.47;;;;;;;3.23;75.24;99493.42;1828760;78;20932;-40
2022/11/25 14:44:58;;;;;;;8.63;6.33;;;;;;;3.25;75.13;99493.89;1828982;78;20940;-40
2022/11/25 14:47:27;;;;;;;7.55;5.85;;;;;;;3.24;75.14;99494.47;1797722;78;21069;-40
2022/11/25 14:49:58;;;;;;;9.20;5.95;;;;;;;3.20;75.10;99494.02;1828893;78;21002;-40
2022/11/25 14:52:33;;;;;;;7.90;6.30;;;;;;;3.18;75.07;99494.89;1828750;78;21271;-40
2022/11/25 14:55:05;;;;;;;8.58;6.47;;;;;;;3.16;74.95;99498.41;1828794;78;20921;-40
2022/11/25 14:57:36;;;;;;;7.75;6.17;;;;;;;3.17;75.04;99497.33;1828932;78;20982;-40
2022/11/25 15:00:15;;;;;;;7.42;6.33;;;;;;;3.21;74.96;99491.59;1828759;77;21526;-40
2022/11/25 15:02:56;;;;;;;10.72;7.22;;;;;;;3.21;75.15;99503.64;1789988;80;20999;-40
2022/11/25 15:05:33;;;;;;;10.03;7.10;;;;;;;3.20;75.16;99499.38;1789924;80;21595;-40
2022/11/25 15:08:13;;;;;;;8.90;6.60;;;;;;;3.18;75.06;99506.41;1790359;80;21000;-40
2022/11/25 15:10:54;;;;;;;;;;;;;;;3.15;75.00;99506.23;1792792;80;21139;-40
2022/11/25 15:13:42;;;;;;;8.63;6.55;;;;;;;3.21;74.98;99507.12;1770181;80;20128;-40
2022/11/25 19:35:35;;;;;;;11.85;7.67;;;;;;;2.25;84.32;99572.80;1823291;78;22752;-38
2022/11/25 19:38:20;;;;;;;10.63;7.85;;;;;;;2.33;83.71;99576.89;1792012;79;21991;-38
2022/11/25 19:40:48;;;;;;;12.05;7.87;;;;;;;2.32;83.90;99579.34;1797824;79;21197;-39
2022/11/25 19:43:15;;;;;;;9.10;6.62;;;;;;;2.33;83.83;99578.77;1797784;79;20963;-39
2022/11/25 19:45:42;;;;;;;10.58;7.33;;;;;;;2.35;83.44;99579.28;1797984;79;20963;-38
2022/11/25 19:48:14;;;;;;;8.78;6.58;;;;;;;2.42;83.26;99582.35;1797729;79;21002;-38
2022/11/25 19:50:42;;;;;;;9.70;6.62;;;;;;;2.54;82.80;99587.97;1796495;79;21003;-38
2022/11/25 19:53:16;;;;;;;9.93;6.85;;;;;;;2.54;82.22;99588.77;1797936;79;21078;-38
2022/11/25 19:55:43;;;;;;;9.20;6.20;;;;;;;2.52;81.91;99590.13;1749597;81;21562;-39
2022/11/25 19:58:10;;;;;;;9.23;6.83;;;;;;;2.52;81.63;99594.15;1741155;82;20941;-38
2022/11/25 20:00:38;;;;;;;8.50;5.97;;;;;;;2.49;81.21;99590.75;1741216;82;20977;-38
2022/11/25 20:03:09;;;;;;;10.35;6.50;;;;;;;2.53;80.65;99586.38;1741232;82;20985;-38
2022/11/25 20:05:36;;;;;;;8.93;6.53;;;;;;;2.53;80.42;99596.53;1740678;82;21147;-39
2022/11/25 20:08:04;;;;;;;9.00;6.45;;;;;;;2.53;80.44;99593.86;1741053;82;21471;-39
2022/11/25 20:10:32;;;;;;;7.58;5.45;;;;;;;2.56;80.42;99591.14;1741106;82;21080;-39
2022/11/25 20:13:04;;;;;;;8.28;5.40;;;;;;;2.58;80.11;99602.32;1741190;82;21015;-39
2022/11/25 20:15:31;;;;;;;7.53;5.72;;;;;;;2.62;79.99;99603.30;1741091;81;21107;-39
2022/11/25 20:17:59;;;;;;;7.80;5.92;;;;;;;2.72;79.76;99597.73;1741167;82;21240;-39
2022/11/25 20:20:32;;;;;;;9.33;6.42;;;;;;;2.79;79.46;99596.78;1741346;82;21021;-39
2022/11/25 20:23:15;;;;;;;8.58;6.00;;;;;;;2.81;79.21;99595.15;1741600;82;20988;-39
2022/11/25 20:25:46;;;;;;;9.28;6.22;;;;;;;2.81;78.88;99594.58;1741089;82;21510;-39
2022/11/25 20:28:19;;;;;;;7.75;5.78;;;;;;;2.76;78.63;99598.70;1741067;82;21014;-39
2022/11/25 20:30:46;;;;;;;7.35;5.30;;;;;;;2.74;78.47;99600.91;1741288;82;21220;-39
2022/11/25 20:33:14;;;;;;;7.22;5.35;;;;;;;2.80;78.18;99609.63;1741024;82;21482;-39
2022/11/25 20:35:44;;;;;;;6.90;5.20;;;;;;;2.82;77.92;99609.55;1756423;81;20944;-39
2022/11/25 20:38:23;;;;;;;7.65;5.50;;;;;;;2.82;77.93;99612.78;1758153;81;21060;-39
2022/11/25 20:40:56;;;;;;;8.28;5.33;;;;;;;2.81;77.74;99610.64;1756593;81;21010;-39
2022/11/25 20:43:35;;;;;;;7.17;5.33;;;;;;;2.76;77.66;99608.65;1757973;81;21187;-39
2022/11/25 20:46:02;;;;;;;8.30;5.33;;;;;;;2.74;77.50;99611.62;1758052;81;20994;-39
2022/11/25 20:48:29;;;;;;;7.28;5.45;;;;;;;2.76;77.44;99604.06;1757367;81;21604;-39
2022/11/25 20:50:58;;;;;;;6.45;4.80;;;;;;;2.79;77.44;99605.36;1757471;81;21538;-39
2022/11/25 20:53:26;;;;;;;6.45;5.12;;;;;;;2.77;77.43;99604.86;1757109;81;20986;-39
2022/11/25 20:55:53;;;;;;;7.40;5.12;;;;;;;2.74;77.36;99608.94;1757729;81;21807;-39
2022/11/25 20:58:24;;;;;;;7.78;5.17;;;;;;;2.74;77.46;99609.48;1757269;81;21606;-39
2022/11/25 21:00:53;;;;;;;6.90;5.15;;;;;;;2.79;77.39;99612.84;1757249;81;20949;-39
2022/11/25 21:03:20;;;;;;;7.87;5.55;;;;;;;2.88;77.20;99618.27;1757420;81;21577;-39
2022/11/25 21:05:50;;;;;;;6.33;5.10;;;;;;;2.91;76.88;99613.09;1757352;81;21067;-39
2022/11/25 21:08:21;;;;;;;7.83;5.20;;;;;;;2.91;76.87;99614.44;1757322;81;21227;-39
2022/11/25 21:10:50;;;;;;;6.75;5.15;;;;;;;2.90;76.83;99614.21;1757683;81;20930;-39
2022/11/25 21:13:23;;;;;;;5.55;4.50;;;;;;;2.87;76.86;99608.10;1757553;81;21000;-39
2022/11/25 21:15:55;;;;;;;5.70;4.58;;;;;;;2.84;76.81;99607.38;1757370;81;21028;-39
2022/11/25 21:18:22;;;;;;;5.92;4.40;;;;;;;2.86;76.65;99615.09;1757401;81;20977;-39
2022/11/25 21:20:51;;;;;;;5.42;4.12;;;;;;;2.89;76.58;99609.95;1757480;81;21222;-39
2022/11/25 21:23:21;;;;;;;4.40;3.33;;;;;;;2.90;76.62;99608.86;1757603;81;21419;-39
2022/11/25 21:25:48;;;;;;;5.53;4.15;;;;;;;2.90;76.52;99610.20;1757586;81;21558;-39
2022/11/25 21:28:23;;;;;;;5.20;4.08;;;;;;;2.86;76.62;99611.87;1757592;81;20901;-39
2022/11/25 21:30:49;;;;;;;7.08;4.28;;;;;;;2.84;76.55;99611.39;1757464;81;21009;-39
2022/11/25 21:33:16;;;;;;;5.60;4.28;;;;;;;2.83;76.37;99608.47;1757319;81;21239;-39
2022/11/25 21:35:45;;;;;;;6.85;4.20;;;;;;;2.86;76.16;99609.19;1728022;81;21007;-39
2022/11/25 21:38:19;;;;;;;3.10;2.73;;;;;;;2.90;76.29;99601.37;1754846;81;21028;-39
2022/11/25 21:40:49;;;;;;;5.33;3.98;;;;;;;2.90;76.30;99598.14;1754928;81;20873;-39
2022/11/25 21:43:24;;;;;;;5.35;3.87;;;;;;;2.89;76.32;99596.56;1754487;81;20996;-39
2022/11/25 21:46:05;;;;;;;4.72;3.72;;;;;;;2.85;76.23;99595.58;1754290;81;21928;-39
2022/11/25 21:48:32;;;;;;;6.35;3.80;;;;;;;2.84;76.10;99599.34;1754439;81;21186;-39
2022/11/25 21:50:59;;;;;;;4.25;3.40;;;;;;;2.83;75.90;99598.30;1754484;81;20995;-39
2022/11/25 21:53:27;;;;;;;6.05;4.20;;;;;;;2.82;75.98;99600.18;1754439;81;20995;-39
2022/11/25 21:55:53;;;;;;;4.95;3.75;;;;;;;2.77;76.01;99597.62;1754519;81;21007;-39
2022/11/25 21:58:25;;;;;;;4.30;3.50;;;;;;;2.72;76.21;99604.97;1724948;81;22032;-39
2022/11/25 22:00:58;;;;;;;4.08;3.60;;;;;;;2.72;76.42;99604.97;1754577;81;20952;-39
2022/11/25 22:03:27;;;;;;;4.87;4.00;;;;;;;2.72;76.30;99601.75;1754521;81;21000;-39
2022/11/25 22:05:55;;;;;;;4.90;3.45;;;;;;;2.79;76.34;99602.14;1754578;81;20925;-39
